sensor_id;sensor_type;location;lat;lon;timestamp;temperature;humidity
30336;DHT22;17142;47.990;7.846;2023-08-06T00:01:13;15.80;99.90
30336;DHT22;17142;47.990;7.846;2023-08-06T00:03:42;15.70;99.90
30336;DHT22;17142;47.990;7.846;2023-08-06T00:06:07;15.60;99.90
30336;DHT22;17142;47.990;7.846;2023-08-06T00:08:33;15.40;99.90
30336;DHT22;17142;47.990;7.846;2023-08-06T00:10:58;15.20;99.90
30336;DHT22;17142;47.990;7.846;2023-08-06T00:13:24;15.20;99.90
30336;DHT22;17142;47.990;7.846;2023-08-06T00:15:50;15.10;99.90
30336;DHT22;17142;47.990;7.846;2023-08-06T00:18:18;15.00;99.90
30336;DHT22;17142;47.990;7.846;2023-08-06T00:20:43;14.90;99.90
30336;DHT22;17142;47.990;7.846;2023-08-06T00:23:09;14.70;99.90
30336;DHT22;17142;47.990;7.846;2023-08-06T00:25:37;14.70;99.90
30336;DHT22;17142;47.990;7.846;2023-08-06T00:28:06;14.70;99.90
30336;DHT22;17142;47.990;7.846;2023-08-06T00:30:31;14.80;99.90
30336;DHT22;17142;47.990;7.846;2023-08-06T00:32:59;14.90;99.90
30336;DHT22;17142;47.990;7.846;2023-08-06T00:35:25;14.80;99.90
30336;DHT22;17142;47.990;7.846;2023-08-06T00:37:53;14.80;99.90
30336;DHT22;17142;47.990;7.846;2023-08-06T00:40:20;14.80;99.90
30336;DHT22;17142;47.990;7.846;2023-08-06T00:42:48;15.00;99.90
30336;DHT22;17142;47.990;7.846;2023-08-06T00:45:15;15.00;99.90
30336;DHT22;17142;47.990;7.846;2023-08-06T00:47:41;14.90;99.90
30336;DHT22;17142;47.990;7.846;2023-08-06T00:50:10;14.90;99.90
30336;DHT22;17142;47.990;7.846;2023-08-06T00:52:39;14.90;99.90
30336;DHT22;17142;47.990;7.846;2023-08-06T00:55:08;14.90;99.90
30336;DHT22;17142;47.990;7.846;2023-08-06T00:57:34;14.90;99.90
30336;DHT22;17142;47.990;7.846;2023-08-06T01:00:02;14.90;99.90
30336;DHT22;17142;47.990;7.846;2023-08-06T01:02:29;14.90;99.90
30336;DHT22;17142;47.990;7.846;2023-08-06T01:04:55;14.90;99.90
30336;DHT22;17142;47.990;7.846;2023-08-06T01:15:24;15.20;99.90
30336;DHT22;17142;47.990;7.846;2023-08-06T01:17:52;15.30;99.90
30336;DHT22;17142;47.990;7.846;2023-08-06T01:20:18;15.40;99.90
30336;DHT22;17142;47.990;7.846;2023-08-06T01:22:44;15.50;99.90
30336;DHT22;17142;47.990;7.846;2023-08-06T01:25:14;15.60;99.90
30336;DHT22;17142;47.990;7.846;2023-08-06T01:27:47;15.80;99.90
30336;DHT22;17142;47.990;7.846;2023-08-06T01:32:49;16.00;99.90
30336;DHT22;17142;47.990;7.846;2023-08-06T01:35:16;16.10;99.90
30336;DHT22;17142;47.990;7.846;2023-08-06T01:37:42;16.10;99.90
30336;DHT22;17142;47.990;7.846;2023-08-06T01:40:13;16.20;99.90
30336;DHT22;17142;47.990;7.846;2023-08-06T01:42:41;16.30;99.90
30336;DHT22;17142;47.990;7.846;2023-08-06T01:45:07;16.20;99.90
30336;DHT22;17142;47.990;7.846;2023-08-06T01:47:33;16.10;99.90
30336;DHT22;17142;47.990;7.846;2023-08-06T01:49:59;16.00;99.90
30336;DHT22;17142;47.990;7.846;2023-08-06T01:52:26;16.00;99.90
30336;DHT22;17142;47.990;7.846;2023-08-06T01:54:54;16.20;99.90
30336;DHT22;17142;47.990;7.846;2023-08-06T01:57:20;16.20;99.90
30336;DHT22;17142;47.990;7.846;2023-08-06T01:59:46;16.30;99.90
30336;DHT22;17142;47.990;7.846;2023-08-06T02:02:12;16.30;99.90
30336;DHT22;17142;47.990;7.846;2023-08-06T02:04:37;16.30;99.90
30336;DHT22;17142;47.990;7.846;2023-08-06T02:07:03;16.40;99.90
30336;DHT22;17142;47.990;7.846;2023-08-06T02:09:29;16.40;99.90
30336;DHT22;17142;47.990;7.846;2023-08-06T02:11:54;16.20;99.90
30336;DHT22;17142;47.990;7.846;2023-08-06T02:14:20;15.90;99.90
30336;DHT22;17142;47.990;7.846;2023-08-06T02:16:46;15.70;99.90
30336;DHT22;17142;47.990;7.846;2023-08-06T02:19:11;15.60;99.90
30336;DHT22;17142;47.990;7.846;2023-08-06T02:21:37;15.50;99.90
30336;DHT22;17142;47.990;7.846;2023-08-06T02:24:03;15.40;99.90
30336;DHT22;17142;47.990;7.846;2023-08-06T02:26:36;15.30;99.90
30336;DHT22;17142;47.990;7.846;2023-08-06T02:29:05;15.40;99.90
30336;DHT22;17142;47.990;7.846;2023-08-06T02:31:33;15.40;99.90
30336;DHT22;17142;47.990;7.846;2023-08-06T02:34:08;15.20;99.90
30336;DHT22;17142;47.990;7.846;2023-08-06T02:36:33;15.10;99.90
30336;DHT22;17142;47.990;7.846;2023-08-06T02:38:59;15.00;99.90
30336;DHT22;17142;47.990;7.846;2023-08-06T02:41:25;15.00;99.90
30336;DHT22;17142;47.990;7.846;2023-08-06T02:43:52;14.90;99.90
30336;DHT22;17142;47.990;7.846;2023-08-06T02:46:18;14.80;99.90
30336;DHT22;17142;47.990;7.846;2023-08-06T02:48:43;14.80;99.90
30336;DHT22;17142;47.990;7.846;2023-08-06T02:51:14;14.60;99.90
30336;DHT22;17142;47.990;7.846;2023-08-06T02:53:39;14.60;99.90
30336;DHT22;17142;47.990;7.846;2023-08-06T02:56:05;14.40;99.90
30336;DHT22;17142;47.990;7.846;2023-08-06T02:58:33;14.30;99.90
30336;DHT22;17142;47.990;7.846;2023-08-06T03:01:06;14.20;99.90
30336;DHT22;17142;47.990;7.846;2023-08-06T03:03:33;14.10;99.90
30336;DHT22;17142;47.990;7.846;2023-08-06T03:06:01;14.10;99.90
30336;DHT22;17142;47.990;7.846;2023-08-06T03:08:27;14.00;99.90
30336;DHT22;17142;47.990;7.846;2023-08-06T03:10:53;13.80;99.90
30336;DHT22;17142;47.990;7.846;2023-08-06T03:13:21;13.80;99.90
30336;DHT22;17142;47.990;7.846;2023-08-06T03:15:57;13.70;99.90
30336;DHT22;17142;47.990;7.846;2023-08-06T03:18:23;13.70;99.90
30336;DHT22;17142;47.990;7.846;2023-08-06T03:20:49;13.60;99.90
30336;DHT22;17142;47.990;7.846;2023-08-06T03:23:17;13.50;99.90
30336;DHT22;17142;47.990;7.846;2023-08-06T03:25:43;13.50;99.90
30336;DHT22;17142;47.990;7.846;2023-08-06T03:28:09;13.50;99.90
30336;DHT22;17142;47.990;7.846;2023-08-06T03:30:35;13.40;99.90
30336;DHT22;17142;47.990;7.846;2023-08-06T03:33:00;13.40;99.90
30336;DHT22;17142;47.990;7.846;2023-08-06T03:35:26;13.40;99.90
30336;DHT22;17142;47.990;7.846;2023-08-06T03:37:54;13.30;99.90
30336;DHT22;17142;47.990;7.846;2023-08-06T03:40:20;13.30;99.90
30336;DHT22;17142;47.990;7.846;2023-08-06T03:42:48;13.30;99.90
30336;DHT22;17142;47.990;7.846;2023-08-06T03:45:21;13.30;99.90
30336;DHT22;17142;47.990;7.846;2023-08-06T03:47:46;13.30;99.90
30336;DHT22;17142;47.990;7.846;2023-08-06T03:50:12;13.30;99.90
30336;DHT22;17142;47.990;7.846;2023-08-06T03:52:38;13.30;99.90
30336;DHT22;17142;47.990;7.846;2023-08-06T03:55:06;13.20;99.90
30336;DHT22;17142;47.990;7.846;2023-08-06T03:57:31;13.20;99.90
30336;DHT22;17142;47.990;7.846;2023-08-06T03:59:57;13.00;99.90
30336;DHT22;17142;47.990;7.846;2023-08-06T04:02:23;12.90;99.90
30336;DHT22;17142;47.990;7.846;2023-08-06T04:04:49;12.80;99.90
30336;DHT22;17142;47.990;7.846;2023-08-06T04:07:18;12.80;99.90
30336;DHT22;17142;47.990;7.846;2023-08-06T04:10:01;12.80;99.90
30336;DHT22;17142;47.990;7.846;2023-08-06T04:12:30;12.70;99.90
30336;DHT22;17142;47.990;7.846;2023-08-06T04:15:01;12.70;99.90
30336;DHT22;17142;47.990;7.846;2023-08-06T04:17:26;12.80;99.90
30336;DHT22;17142;47.990;7.846;2023-08-06T04:19:53;12.90;99.90
30336;DHT22;17142;47.990;7.846;2023-08-06T04:22:22;13.00;99.90
30336;DHT22;17142;47.990;7.846;2023-08-06T04:24:47;13.10;99.90
30336;DHT22;17142;47.990;7.846;2023-08-06T04:27:14;13.20;99.90
30336;DHT22;17142;47.990;7.846;2023-08-06T04:29:43;13.20;99.90
30336;DHT22;17142;47.990;7.846;2023-08-06T04:32:09;13.20;99.90
30336;DHT22;17142;47.990;7.846;2023-08-06T04:34:38;13.30;99.90
30336;DHT22;17142;47.990;7.846;2023-08-06T04:37:09;13.30;99.90
30336;DHT22;17142;47.990;7.846;2023-08-06T04:39:37;13.30;99.90
30336;DHT22;17142;47.990;7.846;2023-08-06T04:42:05;13.30;99.90
30336;DHT22;17142;47.990;7.846;2023-08-06T04:44:30;13.40;99.90
30336;DHT22;17142;47.990;7.846;2023-08-06T04:46:56;13.40;99.90
30336;DHT22;17142;47.990;7.846;2023-08-06T04:49:24;13.40;99.90
30336;DHT22;17142;47.990;7.846;2023-08-06T04:51:55;13.40;99.90
30336;DHT22;17142;47.990;7.846;2023-08-06T04:54:20;13.50;99.90
30336;DHT22;17142;47.990;7.846;2023-08-06T04:56:46;13.50;99.90
30336;DHT22;17142;47.990;7.846;2023-08-06T04:59:14;13.30;99.90
30336;DHT22;17142;47.990;7.846;2023-08-06T05:01:39;13.20;99.90
30336;DHT22;17142;47.990;7.846;2023-08-06T05:04:07;13.00;99.90
30336;DHT22;17142;47.990;7.846;2023-08-06T05:06:35;13.00;99.90
30336;DHT22;17142;47.990;7.846;2023-08-06T05:09:03;13.00;99.90
30336;DHT22;17142;47.990;7.846;2023-08-06T05:11:30;12.90;99.90
30336;DHT22;17142;47.990;7.846;2023-08-06T05:13:55;12.90;99.90
30336;DHT22;17142;47.990;7.846;2023-08-06T05:16:21;12.90;99.90
30336;DHT22;17142;47.990;7.846;2023-08-06T05:18:46;12.90;99.90
30336;DHT22;17142;47.990;7.846;2023-08-06T05:21:12;12.80;99.90
30336;DHT22;17142;47.990;7.846;2023-08-06T05:23:41;12.80;99.90
30336;DHT22;17142;47.990;7.846;2023-08-06T05:26:09;12.70;99.90
30336;DHT22;17142;47.990;7.846;2023-08-06T05:28:37;12.70;99.90
30336;DHT22;17142;47.990;7.846;2023-08-06T05:31:04;12.80;99.90
30336;DHT22;17142;47.990;7.846;2023-08-06T05:33:30;12.80;99.90
30336;DHT22;17142;47.990;7.846;2023-08-06T05:35:56;12.80;99.90
30336;DHT22;17142;47.990;7.846;2023-08-06T05:38:21;12.80;99.90
30336;DHT22;17142;47.990;7.846;2023-08-06T05:40:49;12.90;99.90
30336;DHT22;17142;47.990;7.846;2023-08-06T05:43:20;12.90;99.90
30336;DHT22;17142;47.990;7.846;2023-08-06T05:45:46;12.90;99.90
30336;DHT22;17142;47.990;7.846;2023-08-06T05:48:14;12.90;99.90
30336;DHT22;17142;47.990;7.846;2023-08-06T05:50:44;12.90;99.90
30336;DHT22;17142;47.990;7.846;2023-08-06T05:53:10;12.90;99.90
30336;DHT22;17142;47.990;7.846;2023-08-06T05:55:35;12.80;99.90
30336;DHT22;17142;47.990;7.846;2023-08-06T05:58:01;12.80;99.90
30336;DHT22;17142;47.990;7.846;2023-08-06T06:00:27;12.80;99.90
30336;DHT22;17142;47.990;7.846;2023-08-06T06:02:52;12.90;99.90
30336;DHT22;17142;47.990;7.846;2023-08-06T06:05:18;12.80;99.90
30336;DHT22;17142;47.990;7.846;2023-08-06T06:07:44;12.90;99.90
30336;DHT22;17142;47.990;7.846;2023-08-06T06:10:11;13.10;99.90
30336;DHT22;17142;47.990;7.846;2023-08-06T06:12:38;13.20;99.90
30336;DHT22;17142;47.990;7.846;2023-08-06T06:15:09;13.20;99.90
30336;DHT22;17142;47.990;7.846;2023-08-06T06:17:37;13.40;99.90
30336;DHT22;17142;47.990;7.846;2023-08-06T06:20:05;13.50;99.90
30336;DHT22;17142;47.990;7.846;2023-08-06T06:22:31;13.50;99.90
30336;DHT22;17142;47.990;7.846;2023-08-06T06:25:01;13.50;99.90
30336;DHT22;17142;47.990;7.846;2023-08-06T06:27:27;13.30;99.90
30336;DHT22;17142;47.990;7.846;2023-08-06T06:29:52;13.30;99.90
30336;DHT22;17142;47.990;7.846;2023-08-06T06:32:20;13.20;99.90
30336;DHT22;17142;47.990;7.846;2023-08-06T06:34:50;13.20;99.90
30336;DHT22;17142;47.990;7.846;2023-08-06T06:37:16;13.10;99.90
30336;DHT22;17142;47.990;7.846;2023-08-06T06:39:42;13.10;99.90
30336;DHT22;17142;47.990;7.846;2023-08-06T06:42:07;13.10;99.90
30336;DHT22;17142;47.990;7.846;2023-08-06T06:44:33;13.20;99.90
30336;DHT22;17142;47.990;7.846;2023-08-06T06:46:58;13.20;99.90
30336;DHT22;17142;47.990;7.846;2023-08-06T06:49:24;13.20;99.90
30336;DHT22;17142;47.990;7.846;2023-08-06T06:51:50;13.10;99.90
30336;DHT22;17142;47.990;7.846;2023-08-06T06:54:16;13.10;99.90
30336;DHT22;17142;47.990;7.846;2023-08-06T06:56:42;13.00;99.90
30336;DHT22;17142;47.990;7.846;2023-08-06T06:59:07;13.00;99.90
30336;DHT22;17142;47.990;7.846;2023-08-06T07:01:33;13.00;99.90
30336;DHT22;17142;47.990;7.846;2023-08-06T07:03:59;13.00;99.90
30336;DHT22;17142;47.990;7.846;2023-08-06T07:06:32;13.00;99.90
30336;DHT22;17142;47.990;7.846;2023-08-06T07:08:58;13.00;99.90
30336;DHT22;17142;47.990;7.846;2023-08-06T07:11:23;13.00;99.90
30336;DHT22;17142;47.990;7.846;2023-08-06T07:13:55;13.10;99.90
30336;DHT22;17142;47.990;7.846;2023-08-06T07:16:21;13.20;99.90
30336;DHT22;17142;47.990;7.846;2023-08-06T07:18:47;13.20;99.90
30336;DHT22;17142;47.990;7.846;2023-08-06T07:21:12;13.20;99.90
30336;DHT22;17142;47.990;7.846;2023-08-06T07:23:38;13.30;99.90
30336;DHT22;17142;47.990;7.846;2023-08-06T07:26:03;13.40;99.90
30336;DHT22;17142;47.990;7.846;2023-08-06T07:28:31;13.40;99.90
30336;DHT22;17142;47.990;7.846;2023-08-06T07:30:57;13.40;99.90
30336;DHT22;17142;47.990;7.846;2023-08-06T07:33:22;13.50;99.90
30336;DHT22;17142;47.990;7.846;2023-08-06T07:35:48;13.50;99.90
30336;DHT22;17142;47.990;7.846;2023-08-06T07:38:14;13.50;99.90
30336;DHT22;17142;47.990;7.846;2023-08-06T07:40:39;13.60;99.90
30336;DHT22;17142;47.990;7.846;2023-08-06T07:43:05;13.70;99.90
30336;DHT22;17142;47.990;7.846;2023-08-06T07:45:34;13.80;99.90
30336;DHT22;17142;47.990;7.846;2023-08-06T07:48:01;13.90;99.90
30336;DHT22;17142;47.990;7.846;2023-08-06T07:50:30;14.00;99.90
30336;DHT22;17142;47.990;7.846;2023-08-06T07:52:55;14.00;99.90
30336;DHT22;17142;47.990;7.846;2023-08-06T07:55:21;13.90;99.90
30336;DHT22;17142;47.990;7.846;2023-08-06T07:57:47;14.00;99.90
30336;DHT22;17142;47.990;7.846;2023-08-06T08:00:12;14.20;99.90
30336;DHT22;17142;47.990;7.846;2023-08-06T08:02:40;14.30;99.90
30336;DHT22;17142;47.990;7.846;2023-08-06T08:05:06;14.30;99.90
30336;DHT22;17142;47.990;7.846;2023-08-06T08:07:33;14.30;99.90
30336;DHT22;17142;47.990;7.846;2023-08-06T08:09:59;14.20;99.90
30336;DHT22;17142;47.990;7.846;2023-08-06T08:12:24;14.20;99.90
30336;DHT22;17142;47.990;7.846;2023-08-06T08:14:50;14.30;99.90
30336;DHT22;17142;47.990;7.846;2023-08-06T08:17:16;14.20;99.90
30336;DHT22;17142;47.990;7.846;2023-08-06T08:19:41;14.20;99.90
30336;DHT22;17142;47.990;7.846;2023-08-06T08:22:07;14.20;99.90
30336;DHT22;17142;47.990;7.846;2023-08-06T08:24:33;14.20;99.90
30336;DHT22;17142;47.990;7.846;2023-08-06T08:27:01;14.20;99.90
30336;DHT22;17142;47.990;7.846;2023-08-06T08:29:29;14.20;99.90
30336;DHT22;17142;47.990;7.846;2023-08-06T08:31:54;14.20;99.90
30336;DHT22;17142;47.990;7.846;2023-08-06T08:34:20;14.10;99.90
30336;DHT22;17142;47.990;7.846;2023-08-06T08:36:48;14.00;99.90
30336;DHT22;17142;47.990;7.846;2023-08-06T08:39:15;13.90;99.90
30336;DHT22;17142;47.990;7.846;2023-08-06T08:41:42;13.80;99.90
30336;DHT22;17142;47.990;7.846;2023-08-06T08:44:10;13.70;99.90
30336;DHT22;17142;47.990;7.846;2023-08-06T08:46:37;13.70;99.90
30336;DHT22;17142;47.990;7.846;2023-08-06T08:49:06;13.80;99.90
30336;DHT22;17142;47.990;7.846;2023-08-06T08:51:33;13.90;99.90
30336;DHT22;17142;47.990;7.846;2023-08-06T08:54:07;14.00;99.90
30336;DHT22;17142;47.990;7.846;2023-08-06T08:56:35;14.20;99.90
30336;DHT22;17142;47.990;7.846;2023-08-06T08:59:01;14.40;99.90
30336;DHT22;17142;47.990;7.846;2023-08-06T09:01:30;14.40;99.90
30336;DHT22;17142;47.990;7.846;2023-08-06T09:03:58;14.50;99.90
30336;DHT22;17142;47.990;7.846;2023-08-06T09:06:26;14.40;99.90
30336;DHT22;17142;47.990;7.846;2023-08-06T09:09:13;14.40;99.90
30336;DHT22;17142;47.990;7.846;2023-08-06T09:11:43;14.40;99.90
30336;DHT22;17142;47.990;7.846;2023-08-06T09:14:13;14.40;99.90
30336;DHT22;17142;47.990;7.846;2023-08-06T09:16:39;14.40;99.90
30336;DHT22;17142;47.990;7.846;2023-08-06T09:19:12;14.40;99.90
30336;DHT22;17142;47.990;7.846;2023-08-06T09:21:43;14.30;99.90
30336;DHT22;17142;47.990;7.846;2023-08-06T09:24:10;14.30;99.90
30336;DHT22;17142;47.990;7.846;2023-08-06T09:26:39;14.20;99.90
30336;DHT22;17142;47.990;7.846;2023-08-06T09:29:06;14.20;99.90
30336;DHT22;17142;47.990;7.846;2023-08-06T09:31:43;14.30;99.90
30336;DHT22;17142;47.990;7.846;2023-08-06T09:34:26;14.50;99.90
30336;DHT22;17142;47.990;7.846;2023-08-06T09:36:53;14.60;99.90
30336;DHT22;17142;47.990;7.846;2023-08-06T09:39:27;14.70;99.90
30336;DHT22;17142;47.990;7.846;2023-08-06T09:41:59;14.60;99.90
30336;DHT22;17142;47.990;7.846;2023-08-06T09:44:26;14.70;99.90
30336;DHT22;17142;47.990;7.846;2023-08-06T09:47:00;14.80;99.90
30336;DHT22;17142;47.990;7.846;2023-08-06T09:52:02;14.70;99.90
30336;DHT22;17142;47.990;7.846;2023-08-06T09:54:29;14.80;99.90
30336;DHT22;17142;47.990;7.846;2023-08-06T09:56:57;14.80;99.90
30336;DHT22;17142;47.990;7.846;2023-08-06T09:59:25;14.80;99.90
30336;DHT22;17142;47.990;7.846;2023-08-06T10:01:51;14.90;99.90
30336;DHT22;17142;47.990;7.846;2023-08-06T10:04:21;14.90;99.90
30336;DHT22;17142;47.990;7.846;2023-08-06T10:06:47;14.80;99.90
30336;DHT22;17142;47.990;7.846;2023-08-06T10:09:16;14.90;99.90
30336;DHT22;17142;47.990;7.846;2023-08-06T10:11:50;14.90;99.90
30336;DHT22;17142;47.990;7.846;2023-08-06T10:14:33;15.00;99.90
30336;DHT22;17142;47.990;7.846;2023-08-06T10:17:00;15.10;99.90
30336;DHT22;17142;47.990;7.846;2023-08-06T10:19:27;15.10;99.90
30336;DHT22;17142;47.990;7.846;2023-08-06T10:22:11;15.30;99.90
30336;DHT22;17142;47.990;7.846;2023-08-06T10:24:58;15.20;99.90
30336;DHT22;17142;47.990;7.846;2023-08-06T10:27:32;15.30;99.90
30336;DHT22;17142;47.990;7.846;2023-08-06T10:30:30;15.20;99.90
30336;DHT22;17142;47.990;7.846;2023-08-06T10:33:04;15.00;99.90
30336;DHT22;17142;47.990;7.846;2023-08-06T10:38:11;14.90;99.90
30336;DHT22;17142;47.990;7.846;2023-08-06T10:43:26;14.80;99.90
30336;DHT22;17142;47.990;7.846;2023-08-06T10:45:52;14.80;99.90
30336;DHT22;17142;47.990;7.846;2023-08-06T10:48:37;14.90;99.90
30336;DHT22;17142;47.990;7.846;2023-08-06T10:51:08;14.80;99.90
30336;DHT22;17142;47.990;7.846;2023-08-06T10:53:34;14.80;99.90
30336;DHT22;17142;47.990;7.846;2023-08-06T10:56:00;14.70;99.90
30336;DHT22;17142;47.990;7.846;2023-08-06T10:58:26;14.60;99.90
30336;DHT22;17142;47.990;7.846;2023-08-06T11:00:52;14.50;99.90
30336;DHT22;17142;47.990;7.846;2023-08-06T11:03:17;14.40;99.90
30336;DHT22;17142;47.990;7.846;2023-08-06T11:05:50;14.40;99.90
30336;DHT22;17142;47.990;7.846;2023-08-06T11:08:32;14.20;99.90
30336;DHT22;17142;47.990;7.846;2023-08-06T11:11:09;14.20;99.90
30336;DHT22;17142;47.990;7.846;2023-08-06T11:13:39;14.10;99.90
30336;DHT22;17142;47.990;7.846;2023-08-06T11:16:05;14.00;99.90
30336;DHT22;17142;47.990;7.846;2023-08-06T11:18:32;13.90;99.90
30336;DHT22;17142;47.990;7.846;2023-08-06T11:21:02;14.00;99.90
30336;DHT22;17142;47.990;7.846;2023-08-06T11:23:28;14.00;99.90
30336;DHT22;17142;47.990;7.846;2023-08-06T11:25:56;14.00;99.90
30336;DHT22;17142;47.990;7.846;2023-08-06T11:28:24;14.00;99.90
30336;DHT22;17142;47.990;7.846;2023-08-06T11:30:52;14.00;99.90
30336;DHT22;17142;47.990;7.846;2023-08-06T11:33:27;14.00;99.90
30336;DHT22;17142;47.990;7.846;2023-08-06T11:35:55;14.10;99.90
30336;DHT22;17142;47.990;7.846;2023-08-06T11:38:21;14.20;99.90
30336;DHT22;17142;47.990;7.846;2023-08-06T11:40:50;14.30;99.90
30336;DHT22;17142;47.990;7.846;2023-08-06T11:43:19;14.40;99.90
30336;DHT22;17142;47.990;7.846;2023-08-06T11:45:51;14.50;99.90
30336;DHT22;17142;47.990;7.846;2023-08-06T11:48:20;14.60;99.90
30336;DHT22;17142;47.990;7.846;2023-08-06T11:50:45;14.70;99.90
30336;DHT22;17142;47.990;7.846;2023-08-06T11:53:14;14.70;99.90
30336;DHT22;17142;47.990;7.846;2023-08-06T11:55:41;14.70;99.90
30336;DHT22;17142;47.990;7.846;2023-08-06T11:58:09;14.70;99.90
30336;DHT22;17142;47.990;7.846;2023-08-06T12:00:36;14.80;99.90
30336;DHT22;17142;47.990;7.846;2023-08-06T12:03:04;15.00;99.90
30336;DHT22;17142;47.990;7.846;2023-08-06T12:05:30;15.30;99.90
30336;DHT22;17142;47.990;7.846;2023-08-06T12:07:58;15.40;99.90
30336;DHT22;17142;47.990;7.846;2023-08-06T12:10:25;15.20;99.90
30336;DHT22;17142;47.990;7.846;2023-08-06T12:12:51;14.90;99.90
30336;DHT22;17142;47.990;7.846;2023-08-06T12:15:17;14.80;99.90
30336;DHT22;17142;47.990;7.846;2023-08-06T12:17:47;14.80;99.90
30336;DHT22;17142;47.990;7.846;2023-08-06T12:20:17;14.80;99.90
30336;DHT22;17142;47.990;7.846;2023-08-06T12:22:42;14.90;99.90
30336;DHT22;17142;47.990;7.846;2023-08-06T12:25:10;15.00;99.90
30336;DHT22;17142;47.990;7.846;2023-08-06T12:27:42;15.20;99.90
30336;DHT22;17142;47.990;7.846;2023-08-06T12:30:11;15.50;99.90
30336;DHT22;17142;47.990;7.846;2023-08-06T12:32:40;15.70;99.90
30336;DHT22;17142;47.990;7.846;2023-08-06T12:35:08;15.80;99.90
30336;DHT22;17142;47.990;7.846;2023-08-06T12:37:38;15.90;99.90
30336;DHT22;17142;47.990;7.846;2023-08-06T12:40:05;16.00;99.90
30336;DHT22;17142;47.990;7.846;2023-08-06T12:42:33;15.80;99.90
30336;DHT22;17142;47.990;7.846;2023-08-06T12:44:58;15.70;99.90
30336;DHT22;17142;47.990;7.846;2023-08-06T12:47:24;15.60;99.90
30336;DHT22;17142;47.990;7.846;2023-08-06T12:49:50;15.20;99.90
30336;DHT22;17142;47.990;7.846;2023-08-06T12:52:15;14.80;99.90
30336;DHT22;17142;47.990;7.846;2023-08-06T12:54:41;14.30;99.90
30336;DHT22;17142;47.990;7.846;2023-08-06T12:57:07;14.10;99.90
30336;DHT22;17142;47.990;7.846;2023-08-06T12:59:35;14.20;99.90
30336;DHT22;17142;47.990;7.846;2023-08-06T13:02:02;14.40;99.90
30336;DHT22;17142;47.990;7.846;2023-08-06T13:04:28;14.60;99.90
30336;DHT22;17142;47.990;7.846;2023-08-06T13:06:56;14.90;99.90
30336;DHT22;17142;47.990;7.846;2023-08-06T13:09:21;15.40;99.90
30336;DHT22;17142;47.990;7.846;2023-08-06T13:11:47;15.60;99.90
30336;DHT22;17142;47.990;7.846;2023-08-06T13:14:15;16.00;99.90
30336;DHT22;17142;47.990;7.846;2023-08-06T13:16:42;16.20;99.90
30336;DHT22;17142;47.990;7.846;2023-08-06T13:19:08;16.30;99.90
30336;DHT22;17142;47.990;7.846;2023-08-06T13:21:58;16.70;99.90
30336;DHT22;17142;47.990;7.846;2023-08-06T13:24:21;17.00;99.90
30336;DHT22;17142;47.990;7.846;2023-08-06T13:26:46;17.00;99.90
30336;DHT22;17142;47.990;7.846;2023-08-06T13:29:12;17.10;99.90
30336;DHT22;17142;47.990;7.846;2023-08-06T13:31:38;17.00;99.90
30336;DHT22;17142;47.990;7.846;2023-08-06T13:34:07;16.90;99.90
30336;DHT22;17142;47.990;7.846;2023-08-06T13:36:35;17.00;99.90
30336;DHT22;17142;47.990;7.846;2023-08-06T13:39:01;16.90;99.90
30336;DHT22;17142;47.990;7.846;2023-08-06T13:41:29;16.80;99.90
30336;DHT22;17142;47.990;7.846;2023-08-06T13:43:54;16.90;99.90
30336;DHT22;17142;47.990;7.846;2023-08-06T13:46:20;16.80;99.90
30336;DHT22;17142;47.990;7.846;2023-08-06T13:48:47;16.80;99.90
30336;DHT22;17142;47.990;7.846;2023-08-06T13:51:15;16.80;99.90
30336;DHT22;17142;47.990;7.846;2023-08-06T13:53:41;16.90;99.90
30336;DHT22;17142;47.990;7.846;2023-08-06T13:56:09;16.90;99.90
30336;DHT22;17142;47.990;7.846;2023-08-06T13:58:40;16.80;99.90
30336;DHT22;17142;47.990;7.846;2023-08-06T14:01:06;16.80;99.90
30336;DHT22;17142;47.990;7.846;2023-08-06T14:03:32;16.90;99.90
30336;DHT22;17142;47.990;7.846;2023-08-06T14:06:00;16.90;99.90
30336;DHT22;17142;47.990;7.846;2023-08-06T14:08:25;16.90;99.90
30336;DHT22;17142;47.990;7.846;2023-08-06T14:10:54;16.80;99.90
30336;DHT22;17142;47.990;7.846;2023-08-06T14:13:22;16.80;99.90
30336;DHT22;17142;47.990;7.846;2023-08-06T14:15:48;16.70;99.90
30336;DHT22;17142;47.990;7.846;2023-08-06T14:18:16;16.70;99.90
30336;DHT22;17142;47.990;7.846;2023-08-06T14:20:42;16.70;99.90
30336;DHT22;17142;47.990;7.846;2023-08-06T14:23:08;16.60;99.90
30336;DHT22;17142;47.990;7.846;2023-08-06T14:25:34;16.50;99.90
30336;DHT22;17142;47.990;7.846;2023-08-06T14:28:00;16.40;99.90
30336;DHT22;17142;47.990;7.846;2023-08-06T14:30:26;16.50;99.90
30336;DHT22;17142;47.990;7.846;2023-08-06T14:32:51;16.20;99.90
30336;DHT22;17142;47.990;7.846;2023-08-06T14:35:17;15.90;99.90
30336;DHT22;17142;47.990;7.846;2023-08-06T14:37:43;15.60;99.90
30336;DHT22;17142;47.990;7.846;2023-08-06T14:40:13;15.60;99.90
30336;DHT22;17142;47.990;7.846;2023-08-06T14:42:41;15.80;99.90
30336;DHT22;17142;47.990;7.846;2023-08-06T14:45:07;16.10;99.90
30336;DHT22;17142;47.990;7.846;2023-08-06T14:47:35;16.30;99.90
30336;DHT22;17142;47.990;7.846;2023-08-06T14:50:03;16.50;99.90
30336;DHT22;17142;47.990;7.846;2023-08-06T14:52:29;16.60;99.90
30336;DHT22;17142;47.990;7.846;2023-08-06T14:54:55;16.60;99.90
30336;DHT22;17142;47.990;7.846;2023-08-06T14:57:21;16.70;99.90
30336;DHT22;17142;47.990;7.846;2023-08-06T14:59:53;16.60;99.90
30336;DHT22;17142;47.990;7.846;2023-08-06T15:02:18;16.70;99.90
30336;DHT22;17142;47.990;7.846;2023-08-06T15:04:46;16.60;99.90
30336;DHT22;17142;47.990;7.846;2023-08-06T15:07:15;16.60;99.90
30336;DHT22;17142;47.990;7.846;2023-08-06T15:09:41;16.60;99.90
30336;DHT22;17142;47.990;7.846;2023-08-06T15:12:07;16.60;99.90
30336;DHT22;17142;47.990;7.846;2023-08-06T15:14:34;16.50;99.90
30336;DHT22;17142;47.990;7.846;2023-08-06T15:17:00;16.50;99.90
30336;DHT22;17142;47.990;7.846;2023-08-06T15:19:28;16.50;99.90
30336;DHT22;17142;47.990;7.846;2023-08-06T15:21:53;16.40;99.90
30336;DHT22;17142;47.990;7.846;2023-08-06T15:24:20;16.30;99.90
30336;DHT22;17142;47.990;7.846;2023-08-06T15:26:49;16.20;99.90
30336;DHT22;17142;47.990;7.846;2023-08-06T15:29:16;16.00;99.90
30336;DHT22;17142;47.990;7.846;2023-08-06T15:31:42;15.90;99.90
30336;DHT22;17142;47.990;7.846;2023-08-06T15:34:08;15.90;99.90
30336;DHT22;17142;47.990;7.846;2023-08-06T15:36:36;15.90;99.90
30336;DHT22;17142;47.990;7.846;2023-08-06T15:39:02;15.90;99.90
30336;DHT22;17142;47.990;7.846;2023-08-06T15:41:32;15.90;99.90
30336;DHT22;17142;47.990;7.846;2023-08-06T15:44:00;16.00;99.90
30336;DHT22;17142;47.990;7.846;2023-08-06T15:46:26;16.10;99.90
30336;DHT22;17142;47.990;7.846;2023-08-06T15:48:54;16.20;99.90
30336;DHT22;17142;47.990;7.846;2023-08-06T15:51:22;16.30;99.90